Time;durP1;ratioP1;P1;durP2;ratioP2;P2;SDS_P1;SDS_P2;PMS_P1;PMS_P2;Temp;Humidity;BMP_temperature;BMP_pressure;BME280_temperature;BME280_humidity;BME280_pressure;Samples;Min_cycle;Max_cycle;Signal;HPM_P1;HPM_P2
2023/12/13 00:00:54;;;;;;;10.75;4.90;;;;;;;8.15;100.00;99536.25;5030890;28;20046;-74
2023/12/13 00:03:22;;;;;;;10.05;4.72;;;;;;;8.14;100.00;99526.66;5029172;28;20124;-74
2023/12/13 00:05:49;;;;;;;13.02;5.07;;;;;;;8.14;100.00;99533.69;5028551;28;20045;-74
2023/12/13 00:08:19;;;;;;;14.30;5.75;;;;;;;8.14;100.00;99533.69;5026642;28;20049;-72
2023/12/13 00:10:46;;;;;;;12.00;4.60;;;;;;;8.12;100.00;99527.66;5028920;28;20604;-72
2023/12/13 00:13:14;;;;;;;8.63;3.92;;;;;;;8.12;100.00;99528.50;5027946;28;20155;-72
2023/12/13 00:15:41;;;;;;;7.05;3.72;;;;;;;8.13;100.00;99530.22;5036594;28;20041;-72
2023/12/13 00:18:08;;;;;;;8.82;3.85;;;;;;;8.14;100.00;99520.56;5029472;28;20099;-71
2023/12/13 00:20:36;;;;;;;9.77;3.70;;;;;;;8.13;100.00;99524.09;5030832;28;20076;-72
2023/12/13 00:23:04;;;;;;;5.80;3.13;;;;;;;8.09;100.00;99526.84;5029170;28;20045;-73
2023/12/13 00:25:32;;;;;;;6.88;3.17;;;;;;;8.08;100.00;99519.03;5028932;28;20134;-73
2023/12/13 00:27:59;;;;;;;8.88;3.10;;;;;;;8.06;100.00;99528.75;5029937;28;20052;-71
2023/12/13 00:30:26;;;;;;;7.72;3.03;;;;;;;8.03;100.00;99529.72;5028422;28;20497;-71
2023/12/13 00:32:54;;;;;;;8.20;2.80;;;;;;;7.99;100.00;99522.88;5028825;28;20124;-71
2023/12/13 00:35:21;;;;;;;6.30;2.70;;;;;;;7.95;100.00;99525.69;5045187;28;20054;-71
2023/12/13 00:37:48;;;;;;;5.13;2.40;;;;;;;7.92;100.00;99531.94;5028591;28;20124;-72
2023/12/13 00:40:15;;;;;;;7.05;2.35;;;;;;;7.91;100.00;99530.22;5028648;28;20049;-71
2023/12/13 00:42:42;;;;;;;5.15;2.50;;;;;;;7.91;100.00;99536.34;5027263;28;20045;-71
2023/12/13 00:45:09;;;;;;;7.32;2.30;;;;;;;7.94;100.00;99532.72;5029919;28;20100;-71
2023/12/13 00:47:37;;;;;;;5.68;2.22;;;;;;;7.93;100.00;99525.78;5029916;28;20120;-71
2023/12/13 00:50:06;;;;;;;6.35;2.70;;;;;;;7.92;100.00;99526.69;5029911;28;20056;-71
2023/12/13 00:52:34;;;;;;;7.78;2.22;;;;;;;7.92;100.00;99530.19;5029150;28;20045;-71
2023/12/13 00:55:02;;;;;;;8.80;2.65;;;;;;;7.91;100.00;99531.09;5029028;28;20049;-71
2023/12/13 00:57:29;;;;;;;8.25;2.35;;;;;;;7.92;100.00;99534.56;5029720;28;20052;-70
2023/12/13 00:59:56;;;;;;;4.93;2.22;;;;;;;7.91;100.00;99530.22;5023752;28;20541;-73
2023/12/13 01:02:23;;;;;;;6.97;2.28;;;;;;;7.88;100.00;99533.84;5030179;28;20072;-72
2023/12/13 01:04:50;;;;;;;7.20;2.42;;;;;;;7.85;100.00;99530.47;5034121;28;20033;-72
2023/12/13 01:07:17;;;;;;;5.38;2.22;;;;;;;7.84;100.00;99532.22;5033925;28;20064;-71
2023/12/13 01:09:44;;;;;;;9.30;3.00;;;;;;;7.80;100.00;99528.03;5027172;28;20096;-72
2023/12/13 01:12:13;;;;;;;7.10;2.05;;;;;;;7.74;100.00;99526.50;5029534;28;20474;-71
2023/12/13 01:14:40;;;;;;;6.90;2.15;;;;;;;7.66;100.00;99523.34;5045144;28;20592;-71
2023/12/13 01:17:07;;;;;;;8.27;3.10;;;;;;;7.64;100.00;99529.53;5029498;28;20042;-71
2023/12/13 01:19:35;;;;;;;8.05;2.58;;;;;;;7.60;100.00;99526.19;5028013;28;20076;-72
2023/12/13 01:22:02;;;;;;;6.70;2.20;;;;;;;7.63;100.00;99525.25;5030516;28;20465;-72
2023/12/13 01:24:29;;;;;;;5.60;2.17;;;;;;;7.63;100.00;99530.50;5028045;28;20045;-72
2023/12/13 01:26:57;;;;;;;7.40;2.17;;;;;;;7.61;100.00;99525.28;5044342;28;20056;-72
2023/12/13 01:29:24;;;;;;;9.80;2.75;;;;;;;7.60;100.00;99537.56;5030397;28;20049;-72
2023/12/13 01:31:51;;;;;;;5.15;2.20;;;;;;;7.60;100.00;99529.69;5026081;28;20129;-72
2023/12/13 01:34:19;;;;;;;5.45;2.13;;;;;;;7.60;100.00;99529.69;5013121;28;20049;-71
2023/12/13 01:36:46;;;;;;;6.85;2.55;;;;;;;7.64;100.00;99538.28;5028062;28;20498;-72
2023/12/13 01:39:15;;;;;;;5.85;2.20;;;;;;;7.67;100.00;99532.06;5028470;28;20076;-72
2023/12/13 01:41:43;;;;;;;7.63;2.08;;;;;;;7.69;100.00;99531.06;5029072;28;20037;-73
2023/12/13 01:44:10;;;;;;;8.13;2.70;;;;;;;7.73;100.00;99531.84;5029288;28;20056;-73
2023/12/13 01:46:39;;;;;;;5.90;2.00;;;;;;;7.75;100.00;99529.97;5028882;28;20119;-72
2023/12/13 01:49:09;;;;;;;10.45;4.85;;;;;;;7.75;100.00;99530.84;5028082;28;20132;-72
2023/12/13 01:51:38;;;;;;;5.95;2.42;;;;;;;7.75;100.00;99533.47;5044651;28;20041;-72
2023/12/13 01:54:11;;;;;;;8.20;2.70;;;;;;;7.76;100.00;99534.31;5028387;28;20046;-73
2023/12/13 01:56:42;;;;;;;8.40;3.58;;;;;;;7.76;100.00;99536.94;5028846;28;20416;-72
2023/12/13 01:59:10;;;;;;;4.85;1.98;;;;;;;7.77;100.00;99542.16;5027791;28;20045;-73
2023/12/13 02:01:37;;;;;;;5.35;2.00;;;;;;;7.80;100.00;99537.66;5051345;28;20042;-71
2023/12/13 02:04:05;;;;;;;5.75;2.22;;;;;;;7.81;100.00;99539.38;5028963;28;20091;-72
2023/12/13 02:06:32;;;;;;;6.93;2.00;;;;;;;7.84;100.00;99544.50;5014679;28;20030;-72
2023/12/13 02:08:59;;;;;;;6.03;1.80;;;;;;;7.87;100.00;99533.91;5026682;28;20053;-72
2023/12/13 02:11:26;;;;;;;6.53;2.20;;;;;;;7.88;100.00;99538.25;5028421;28;20049;-72
2023/12/13 02:13:56;;;;;;;6.70;2.15;;;;;;;7.89;100.00;99534.66;5028051;28;20045;-73
2023/12/13 02:16:24;;;;;;;9.27;2.70;;;;;;;7.89;100.00;99537.28;5025590;28;20045;-72
2023/12/13 02:18:51;;;;;;;8.65;2.47;;;;;;;7.91;100.00;99535.47;5027847;28;20061;-73
2023/12/13 02:21:19;;;;;;;9.27;3.10;;;;;;;7.90;100.00;99537.25;5043063;28;20099;-73
2023/12/13 02:23:48;;;;;;;8.38;2.75;;;;;;;7.91;100.00;99538.97;5027212;28;20398;-73
2023/12/13 02:26:16;;;;;;;6.68;2.30;;;;;;;7.92;100.00;99540.69;5025866;28;20049;-73
2023/12/13 02:28:44;;;;;;;9.20;2.60;;;;;;;7.92;100.00;99538.06;5024901;28;20150;-72
2023/12/13 02:31:12;;;;;;;7.47;2.40;;;;;;;7.93;100.00;99531.91;5013411;28;20103;-72
2023/12/13 02:33:40;;;;;;;8.50;4.10;;;;;;;7.93;100.00;99531.03;5026451;28;20044;-72
2023/12/13 02:36:09;;;;;;;7.20;3.22;;;;;;;7.92;100.00;99526.69;5048427;28;20079;-72
2023/12/13 02:38:36;;;;;;;11.27;6.47;;;;;;;7.91;100.00;99522.34;5055460;28;20047;-72
2023/12/13 02:41:03;;;;;;;15.55;7.30;;;;;;;7.89;100.00;99513.69;5020398;28;20050;-71
2023/12/13 02:43:31;;;;;;;16.75;8.80;;;;;;;7.86;100.00;99514.66;5026736;28;20485;-71
2023/12/13 02:45:58;;;;;;;12.80;7.03;;;;;;;7.85;100.00;99514.75;5026018;28;20707;-72
2023/12/13 02:48:25;;;;;;;9.68;5.38;;;;;;;7.84;100.00;99510.41;5042177;28;20075;-71
2023/12/13 02:50:52;;;;;;;10.40;4.43;;;;;;;7.83;100.00;99508.69;5013479;28;20421;-72
2023/12/13 02:53:23;;;;;;;11.00;4.80;;;;;;;7.83;100.00;99512.19;5027603;28;20041;-71
2023/12/13 02:55:50;;;;;;;9.32;3.67;;;;;;;7.83;100.00;99506.94;5023487;28;20061;-71
2023/12/13 02:58:18;;;;;;;7.53;3.40;;;;;;;7.85;100.00;99504.25;5026790;28;20043;-71
2023/12/13 03:00:45;;;;;;;7.88;2.90;;;;;;;7.84;100.00;99506.00;5027555;28;20049;-71
2023/12/13 03:03:12;;;;;;;10.38;3.45;;;;;;;7.84;100.00;99506.00;5026553;28;20045;-72
2023/12/13 03:05:39;;;;;;;8.00;3.05;;;;;;;7.85;100.00;99499.00;5033383;28;20509;-72
2023/12/13 03:08:06;;;;;;;7.90;2.75;;;;;;;7.85;100.00;99501.63;5026831;28;20059;-72
2023/12/13 03:10:33;;;;;;;12.10;3.10;;;;;;;7.86;100.00;99505.97;5025575;28;20052;-72
2023/12/13 03:13:00;;;;;;;10.80;3.20;;;;;;;7.87;100.00;99505.03;5026041;28;20525;-72
2023/12/13 03:15:27;;;;;;;7.95;3.10;;;;;;;7.87;100.00;99500.63;5027424;28;20112;-72
2023/12/13 03:17:54;;;;;;;6.90;2.90;;;;;;;7.87;100.00;99502.41;5027106;28;20540;-72
2023/12/13 03:20:22;;;;;;;8.57;3.45;;;;;;;7.87;100.00;99508.50;5027804;28;20125;-72
2023/12/13 03:22:49;;;;;;;12.55;3.30;;;;;;;7.87;100.00;99499.78;5025128;28;20057;-72
2023/12/13 03:25:16;;;;;;;10.73;3.42;;;;;;;7.84;100.00;99505.16;5024784;28;20045;-72
2023/12/13 03:27:44;;;;;;;10.32;3.20;;;;;;;7.78;100.00;99498.38;5028824;28;20072;-73
2023/12/13 03:30:12;;;;;;;11.45;3.85;;;;;;;7.75;100.00;99494.13;5030216;28;20107;-72
2023/12/13 03:32:39;;;;;;;9.18;3.38;;;;;;;7.76;100.00;99497.59;5043064;28;20041;-73
2023/12/13 03:35:07;;;;;;;9.93;3.80;;;;;;;7.75;100.00;99496.75;5021051;28;20037;-72
2023/12/13 03:37:34;;;;;;;8.30;3.63;;;;;;;7.78;100.00;99493.13;5054758;28;20045;-73
2023/12/13 03:40:03;;;;;;;12.35;4.05;;;;;;;7.80;100.00;99493.06;5034646;28;20052;-73
2023/12/13 03:42:30;;;;;;;13.63;3.85;;;;;;;7.81;100.00;99490.41;5046354;28;20041;-73
2023/12/13 03:44:57;;;;;;;8.93;3.90;;;;;;;7.81;100.00;99485.16;5034777;28;20041;-73
2023/12/13 03:47:24;;;;;;;10.57;3.97;;;;;;;7.82;100.00;99486.88;5030488;28;20041;-73
2023/12/13 03:49:51;;;;;;;14.07;4.50;;;;;;;7.81;100.00;99489.53;5041213;28;20073;-75
2023/12/13 03:52:18;;;;;;;7.35;4.03;;;;;;;7.82;100.00;99491.25;5029895;28;20050;-75
2023/12/13 03:54:45;;;;;;;11.68;4.28;;;;;;;7.82;100.00;99486.00;5030228;28;20128;-75
2023/12/13 03:57:12;;;;;;;10.90;4.63;;;;;;;7.85;100.00;99475.38;5008000;28;20045;-75
2023/12/13 03:59:39;;;;;;;13.10;4.22;;;;;;;7.85;100.00;99478.84;5024244;28;20140;-74
2023/12/13 04:02:07;;;;;;;12.10;4.35;;;;;;;7.88;100.00;99478.72;5030829;28;20049;-74
2023/12/13 04:04:35;;;;;;;10.10;4.32;;;;;;;7.89;100.00;99475.19;5030789;28;20056;-76
2023/12/13 04:07:05;;;;;;;16.48;5.00;;;;;;;7.88;100.00;99475.25;5029132;28;20233;-72
2023/12/13 04:09:32;;;;;;;10.38;4.38;;;;;;;7.88;100.00;99483.13;5044116;28;20041;-71
2023/12/13 04:12:02;;;;;;;15.77;5.00;;;;;;;7.87;100.00;99477.00;5029251;28;20045;-72
2023/12/13 04:14:29;;;;;;;11.68;4.63;;;;;;;7.87;100.00;99479.63;5029835;28;20041;-72
2023/12/13 04:16:56;;;;;;;12.30;4.95;;;;;;;7.88;100.00;99475.25;5030169;28;20037;-72
2023/12/13 04:19:23;;;;;;;13.77;4.75;;;;;;;7.89;100.00;99464.69;5029589;28;20037;-72
2023/12/13 04:21:50;;;;;;;13.75;4.93;;;;;;;7.91;100.00;99476.00;5030636;28;20138;-73
2023/12/13 04:24:17;;;;;;;15.32;5.38;;;;;;;7.91;100.00;99467.25;5029057;28;20041;-74
2023/12/13 04:26:45;;;;;;;14.10;4.65;;;;;;;7.91;100.00;99467.25;5042229;28;20120;-73
2023/12/13 04:29:12;;;;;;;13.70;4.45;;;;;;;7.92;100.00;99475.06;5025288;28;20143;-74
2023/12/13 04:31:40;;;;;;;14.90;5.03;;;;;;;7.92;100.00;99476.81;5026647;28;20037;-74
2023/12/13 04:34:07;;;;;;;13.60;4.47;;;;;;;7.91;100.00;99470.75;5027469;28;20128;-73
2023/12/13 04:36:35;;;;;;;12.32;4.53;;;;;;;7.90;100.00;99469.03;5028179;28;20049;-74
2023/12/13 04:39:03;;;;;;;19.48;5.03;;;;;;;7.92;100.00;99469.81;5028013;28;20073;-73
2023/12/13 04:41:32;;;;;;;15.93;4.55;;;;;;;7.93;100.00;99473.28;5027001;28;20073;-71
2023/12/13 04:43:59;;;;;;;13.10;4.30;;;;;;;7.93;100.00;99468.91;5027310;28;20073;-73
2023/12/13 04:46:26;;;;;;;16.55;4.60;;;;;;;7.93;100.00;99468.91;5029458;28;20132;-72
2023/12/13 04:48:54;;;;;;;16.83;3.90;;;;;;;7.95;100.00;99467.97;5024567;28;20520;-72
2023/12/13 04:51:22;;;;;;;15.07;4.88;;;;;;;7.96;100.00;99469.69;5030627;28;20048;-73
2023/12/13 04:53:49;;;;;;;15.55;4.50;;;;;;;7.96;100.00;99470.56;5042433;28;20063;-73
2023/12/13 04:56:16;;;;;;;13.25;4.55;;;;;;;7.96;100.00;99465.31;5028908;28;20644;-72
2023/12/13 04:58:43;;;;;;;10.43;4.40;;;;;;;7.95;100.00;99460.97;5039026;28;20037;-73
2023/12/13 05:01:10;;;;;;;14.77;4.65;;;;;;;7.95;100.00;99467.97;5028539;28;20178;-73
2023/12/13 05:03:38;;;;;;;17.75;4.10;;;;;;;7.95;100.00;99466.22;5045123;28;20055;-73
2023/12/13 05:06:05;;;;;;;13.20;3.90;;;;;;;7.94;100.00;99469.75;5044964;28;20041;-72
2023/12/13 05:08:33;;;;;;;15.82;4.10;;;;;;;7.93;100.00;99462.78;5046666;28;20123;-72
2023/12/13 05:11:00;;;;;;;19.50;4.28;;;;;;;7.95;100.00;99460.09;5028060;28;20509;-73
2023/12/13 05:13:28;;;;;;;13.23;3.70;;;;;;;7.98;100.00;99462.59;5025845;28;20069;-73
2023/12/13 05:15:55;;;;;;;18.08;3.58;;;;;;;7.99;100.00;99461.69;5028745;28;20045;-73
2023/12/13 05:18:22;;;;;;;16.65;3.90;;;;;;;8.01;100.00;99458.06;5027701;28;20050;-73
2023/12/13 05:20:49;;;;;;;18.05;4.13;;;;;;;8.02;100.00;99451.91;5026929;28;20168;-72
2023/12/13 05:23:16;;;;;;;11.50;3.95;;;;;;;8.04;100.00;99452.72;5017670;28;20191;-72
2023/12/13 05:25:43;;;;;;;13.40;3.97;;;;;;;8.04;100.00;99444.84;5027331;28;20048;-72
2023/12/13 05:28:11;;;;;;;18.42;4.60;;;;;;;8.06;100.00;99445.63;5043467;28;20049;-72
2023/12/13 05:30:38;;;;;;;16.23;4.10;;;;;;;8.06;100.00;99440.38;5025188;28;20077;-73
2023/12/13 05:33:07;;;;;;;15.25;4.38;;;;;;;8.07;100.00;99441.22;5025667;28;20052;-73
2023/12/13 05:35:35;;;;;;;17.73;4.25;;;;;;;8.09;100.00;99444.63;5025937;28;20061;-73
2023/12/13 05:38:02;;;;;;;20.95;4.72;;;;;;;8.08;100.00;99451.66;5026147;28;20042;-72
2023/12/13 05:40:33;;;;;;;17.17;4.00;;;;;;;8.08;100.00;99449.03;5027466;28;20069;-72
2023/12/13 05:43:03;;;;;;;18.15;4.55;;;;;;;8.09;100.00;99450.72;5038889;28;20057;-71
2023/12/13 05:45:30;;;;;;;20.65;4.43;;;;;;;8.11;100.00;99455.06;5026894;28;20048;-71
2023/12/13 05:48:00;;;;;;;24.92;4.80;;;;;;;8.10;100.00;99451.59;5028041;28;20091;-71
2023/12/13 05:50:27;;;;;;;19.00;4.57;;;;;;;8.14;100.00;99452.31;5027567;28;20049;-77
2023/12/13 05:52:54;;;;;;;16.17;4.40;;;;;;;8.15;100.00;99449.63;5036520;28;20073;-70
2023/12/13 05:55:22;;;;;;;18.38;4.57;;;;;;;8.16;100.00;99451.31;5032908;28;20244;-70
2023/12/13 05:57:49;;;;;;;11.98;3.67;;;;;;;8.18;100.00;99454.75;5023960;28;20052;-70
2023/12/13 06:00:16;;;;;;;12.00;4.03;;;;;;;8.19;100.00;99456.44;5024850;28;20046;-70
2023/12/13 06:02:43;;;;;;;15.38;3.80;;;;;;;8.20;100.00;99459.91;5044863;28;20045;-70
2023/12/13 06:05:24;;;;;;;19.63;4.03;;;;;;;8.21;100.00;99464.25;5028183;28;20059;-69
2023/12/13 06:07:51;;;;;;;14.48;3.95;;;;;;;8.22;100.00;99464.22;5027752;28;20054;-70
2023/12/13 06:10:19;;;;;;;18.08;4.38;;;;;;;8.24;100.00;99467.59;5027863;28;20041;-71
2023/12/13 06:12:52;;;;;;;17.20;4.45;;;;;;;8.25;100.00;99471.09;5026671;28;20044;-70
2023/12/13 06:15:21;;;;;;;15.23;4.70;;;;;;;8.25;100.00;99473.72;5026555;28;20125;-70
2023/12/13 06:17:48;;;;;;;13.27;4.00;;;;;;;8.28;100.00;99472.72;5041979;28;20042;-69
2023/12/13 06:20:18;;;;;;;21.30;4.15;;;;;;;8.30;100.00;99470.91;5026885;28;20519;-69
2023/12/13 06:22:45;;;;;;;17.92;4.30;;;;;;;8.29;100.00;99470.03;5056049;28;20387;-69
2023/12/13 06:25:13;;;;;;;15.18;4.13;;;;;;;8.31;100.00;99477.84;5025482;28;20060;-70
2023/12/13 06:27:40;;;;;;;17.77;4.65;;;;;;;8.32;100.00;99482.19;5024664;28;20133;-69
2023/12/13 06:30:08;;;;;;;18.63;4.30;;;;;;;8.32;100.00;99475.16;5027395;28;20584;-69
2023/12/13 06:33:28;;;;;;;19.55;4.25;;;;;;;8.34;100.00;99478.56;5084444;27;20538;-68
2023/12/13 06:35:55;;;;;;;21.20;4.88;;;;;;;8.34;100.00;99475.94;5083729;28;20043;-69
2023/12/13 06:38:22;;;;;;;20.08;4.60;;;;;;;8.33;100.00;99476.88;5083584;28;20040;-69
2023/12/13 06:40:50;;;;;;;19.10;5.05;;;;;;;8.32;100.00;99477.78;5082083;28;20192;-69
2023/12/13 06:43:17;;;;;;;16.08;3.83;;;;;;;8.32;100.00;99476.94;5082312;28;20128;-72
2023/12/13 06:45:44;;;;;;;18.80;5.60;;;;;;;8.31;100.00;99483.94;5085024;28;20047;-72
2023/12/13 06:48:12;;;;;;;19.90;6.05;;;;;;;8.31;100.00;99483.09;5083334;28;20048;-71
2023/12/13 06:50:39;;;;;;;27.67;8.00;;;;;;;8.29;100.00;99475.28;5094745;28;20251;-71
2023/12/13 06:53:06;;;;;;;24.33;5.13;;;;;;;8.27;100.00;99468.38;5082914;28;20046;-71
2023/12/13 06:55:33;;;;;;;23.92;5.57;;;;;;;8.24;100.00;99485.97;5081944;28;20048;-71
2023/12/13 06:58:00;;;;;;;18.67;4.72;;;;;;;8.22;100.00;99481.72;5078177;28;20044;-71
2023/12/13 07:00:27;;;;;;;14.48;4.53;;;;;;;8.19;100.00;99487.97;5082093;28;20040;-73
2023/12/13 07:02:54;;;;;;;19.08;4.80;;;;;;;8.19;100.00;99482.72;5077320;28;20135;-71
2023/12/13 07:05:22;;;;;;;22.17;5.43;;;;;;;8.21;100.00;99480.88;5084579;28;20040;-71
2023/12/13 07:07:49;;;;;;;23.52;5.65;;;;;;;8.23;100.00;99478.19;5081300;28;20590;-71
2023/12/13 07:10:16;;;;;;;16.38;4.68;;;;;;;8.25;100.00;99484.22;5084830;28;20048;-71
2023/12/13 07:12:43;;;;;;;22.75;5.35;;;;;;;8.23;100.00;99480.81;5083112;28;20074;-72
2023/12/13 07:15:11;;;;;;;19.30;5.95;;;;;;;8.24;100.00;99487.75;5097897;28;20047;-71
2023/12/13 07:17:38;;;;;;;23.05;5.22;;;;;;;8.23;100.00;99486.91;5083196;28;20067;-71
2023/12/13 07:20:07;;;;;;;20.10;5.13;;;;;;;8.23;100.00;99492.19;5082543;28;20123;-72
2023/12/13 07:22:35;;;;;;;18.83;5.43;;;;;;;8.23;100.00;99486.06;5083275;28;20036;-71
2023/12/13 07:25:06;;;;;;;25.48;5.38;;;;;;;8.23;100.00;99492.19;5082401;28;20059;-71
2023/12/13 07:27:33;;;;;;;22.67;5.05;;;;;;;8.23;100.00;99492.19;5081596;28;20041;-71
2023/12/13 07:30:01;;;;;;;16.65;5.35;;;;;;;8.24;100.00;99491.22;5082983;28;20047;-70
2023/12/13 07:32:28;;;;;;;21.42;5.38;;;;;;;8.24;100.00;99496.47;5099641;28;20106;-71
2023/12/13 07:34:55;;;;;;;22.48;6.00;;;;;;;8.26;100.00;99501.69;5084186;28;20125;-71
2023/12/13 07:37:22;;;;;;;24.63;5.97;;;;;;;8.26;100.00;99492.94;5074464;28;20044;-71
2023/12/13 07:39:49;;;;;;;19.25;5.72;;;;;;;8.27;100.00;99498.16;5083238;28;20040;-71
2023/12/13 07:42:16;;;;;;;20.48;5.18;;;;;;;8.27;100.00;99506.03;5082177;28;20044;-71
2023/12/13 07:44:45;;;;;;;17.42;5.45;;;;;;;8.27;100.00;99500.78;5070158;28;20072;-71
2023/12/13 07:47:12;;;;;;;22.02;5.88;;;;;;;8.28;100.00;99499.84;5071182;28;20037;-71
2023/12/13 07:49:39;;;;;;;19.83;6.07;;;;;;;8.30;100.00;99498.00;5070969;28;20119;-71
2023/12/13 07:52:07;;;;;;;20.70;5.68;;;;;;;8.31;100.00;99502.31;5069990;28;20039;-71
2023/12/13 07:54:35;;;;;;;19.02;5.78;;;;;;;8.32;100.00;99497.94;5085821;28;20041;-71
2023/12/13 07:57:03;;;;;;;20.83;6.28;;;;;;;8.32;100.00;99506.66;5069565;28;20074;-71
2023/12/13 07:59:30;;;;;;;24.75;7.18;;;;;;;8.32;100.00;99506.66;5068105;28;20040;-72
2023/12/13 08:01:57;;;;;;;23.77;6.88;;;;;;;8.33;100.00;99515.41;5070852;28;20074;-72
2023/12/13 08:04:24;;;;;;;21.85;6.75;;;;;;;8.31;100.00;99507.59;5072955;28;20051;-72
2023/12/13 08:06:52;;;;;;;24.95;6.20;;;;;;;8.30;100.00;99505.03;5083223;28;20496;-72
2023/12/13 08:09:19;;;;;;;20.80;6.13;;;;;;;8.30;100.00;99505.88;5079172;28;20037;-72
2023/12/13 08:11:46;;;;;;;21.23;6.65;;;;;;;8.30;100.00;99510.28;5070881;28;20037;-72
2023/12/13 08:14:14;;;;;;;21.08;5.88;;;;;;;8.31;100.00;99504.13;5051326;28;20044;-72
2023/12/13 08:16:42;;;;;;;20.73;6.32;;;;;;;8.33;100.00;99518.03;5068298;28;20544;-71
2023/12/13 08:19:09;;;;;;;20.55;6.38;;;;;;;8.32;100.00;99516.31;5070272;28;20649;-72
2023/12/13 08:21:40;;;;;;;21.13;5.90;;;;;;;8.33;100.00;99518.03;5070888;28;20512;-72
2023/12/13 08:24:10;;;;;;;18.10;6.05;;;;;;;8.31;100.00;99514.63;5069743;28;20036;-72
2023/12/13 08:26:37;;;;;;;16.10;5.50;;;;;;;8.28;100.00;99515.59;5069231;28;20044;-72
2023/12/13 08:29:04;;;;;;;14.70;5.88;;;;;;;8.28;100.00;99512.13;5068956;28;20064;-72
2023/12/13 08:31:34;;;;;;;25.92;6.47;;;;;;;8.28;100.00;99520.00;5068047;28;20067;-72
2023/12/13 08:34:01;;;;;;;23.15;6.13;;;;;;;8.27;100.00;99513.91;5068712;28;20078;-72
2023/12/13 08:36:29;;;;;;;20.10;6.57;;;;;;;8.29;100.00;99521.69;5069135;28;20658;-72
2023/12/13 08:38:56;;;;;;;22.33;7.25;;;;;;;8.30;100.00;99520.78;5069401;28;20076;-72
2023/12/13 08:41:23;;;;;;;21.30;7.18;;;;;;;8.32;100.00;99519.78;5068529;28;20102;-72
2023/12/13 08:43:50;;;;;;;18.70;7.63;;;;;;;8.33;100.00;99526.75;5080042;28;20044;-72
2023/12/13 08:46:17;;;;;;;32.63;12.32;;;;;;;8.34;100.00;99525.00;5084885;28;20053;-73
2023/12/13 08:48:45;;;;;;;27.88;10.65;;;;;;;8.35;100.00;99524.94;5069028;28;20040;-72
2023/12/13 08:51:13;;;;;;;25.77;11.10;;;;;;;8.38;100.00;99534.44;5068838;28;20037;-72
2023/12/13 08:53:40;;;;;;;29.88;19.90;;;;;;;8.38;100.00;99529.19;5067644;28;21081;-72
2023/12/13 08:56:09;;;;;;;40.45;24.55;;;;;;;8.38;100.00;99527.44;5068554;28;20068;-72
2023/12/13 08:58:36;;;;;;;27.70;11.88;;;;;;;8.42;100.00;99535.16;5069353;28;20420;-72
2023/12/13 09:01:04;;;;;;;30.00;15.82;;;;;;;8.42;100.00;99528.16;5066801;28;20036;-72
2023/12/13 09:03:31;;;;;;;26.48;16.60;;;;;;;8.44;100.00;99536.81;5069741;28;20047;-72
2023/12/13 09:05:59;;;;;;;25.67;15.40;;;;;;;8.46;100.00;99534.97;5072071;28;20048;-72
2023/12/13 09:08:26;;;;;;;17.75;9.30;;;;;;;8.48;100.00;99537.56;5070134;28;20631;-72
2023/12/13 09:10:55;;;;;;;16.48;7.97;;;;;;;8.52;100.00;99544.41;5067759;28;20048;-73
2023/12/13 09:13:22;;;;;;;20.08;8.38;;;;;;;8.54;100.00;99548.69;5068341;28;20047;-72
2023/12/13 09:15:49;;;;;;;20.08;8.50;;;;;;;8.62;100.00;99543.06;5066400;28;20055;-72
2023/12/13 09:18:16;;;;;;;21.98;9.18;;;;;;;8.65;100.00;99542.97;5068305;28;20048;-72
2023/12/13 09:20:44;;;;;;;18.15;8.20;;;;;;;8.70;100.00;99550.63;5068533;28;20047;-72
2023/12/13 09:23:21;;;;;;;20.60;8.68;;;;;;;8.75;100.00;99542.56;5066838;28;20029;-72
2023/12/13 09:25:48;;;;;;;19.30;7.88;;;;;;;8.79;100.00;99539.72;5067683;28;20047;-72
2023/12/13 09:28:16;;;;;;;15.43;7.13;;;;;;;8.82;100.00;99542.22;5068350;28;20052;-72
2023/12/13 09:30:44;;;;;;;17.98;12.48;;;;;;;8.86;100.00;99545.56;5065768;28;20576;-72
2023/12/13 09:33:13;;;;;;;22.65;9.57;;;;;;;8.92;100.00;99547.09;5066650;28;20566;-72
2023/12/13 09:35:42;;;;;;;22.27;14.75;;;;;;;8.96;100.00;99551.25;5060895;28;20430;-72
2023/12/13 09:38:09;;;;;;;24.73;17.65;;;;;;;8.98;100.00;99547.66;5067856;28;20550;-72
2023/12/13 09:40:37;;;;;;;20.52;13.10;;;;;;;9.02;100.00;99559.75;5066555;28;20045;-72
2023/12/13 09:43:04;;;;;;;25.23;18.40;;;;;;;9.07;100.00;99571.84;5068190;28;20035;-72
2023/12/13 09:45:33;;;;;;;16.45;9.05;;;;;;;9.08;100.00;99561.25;5066988;28;20129;-72
2023/12/13 09:48:02;;;;;;;19.90;12.07;;;;;;;9.08;100.00;99563.03;5068916;28;20044;-72
2023/12/13 09:50:34;;;;;;;17.73;8.55;;;;;;;9.10;100.00;99569.09;5066407;28;20076;-72
2023/12/13 09:53:04;;;;;;;13.13;6.35;;;;;;;9.07;100.00;99570.03;5092814;28;20044;-72
2023/12/13 09:55:34;;;;;;;26.40;18.50;;;;;;;9.07;100.00;99574.47;5065993;28;20071;-72
2023/12/13 09:58:02;;;;;;;69.32;44.22;;;;;;;9.05;100.00;99574.53;5066534;28;20504;-72
2023/12/13 10:00:29;;;;;;;49.58;27.52;;;;;;;9.05;100.00;99578.94;5048694;28;20044;-72
2023/12/13 10:02:56;;;;;;;222.60;105.30;;;;;;;9.04;100.00;99585.97;5068937;28;20536;-71
2023/12/13 10:05:28;;;;;;;279.95;165.65;;;;;;;9.03;100.00;99584.25;5078640;28;20054;-71
2023/12/13 10:08:02;;;;;;;37.03;22.92;;;;;;;9.05;100.00;99592.06;5087895;28;20044;-71
2023/12/13 10:10:34;;;;;;;17.70;10.52;;;;;;;9.06;100.00;99596.41;5066390;28;20101;-71
2023/12/13 10:13:02;;;;;;;14.85;7.38;;;;;;;9.08;100.00;99594.56;5067272;28;20499;-71
2023/12/13 10:15:32;;;;;;;23.65;13.20;;;;;;;9.12;100.00;99593.50;5064783;28;20044;-71
2023/12/13 10:18:01;;;;;;;18.42;8.60;;;;;;;9.19;100.00;99594.09;5048950;28;20047;-72
2023/12/13 10:20:30;;;;;;;16.55;8.65;;;;;;;9.29;100.00;99593.63;5069128;28;20049;-71
2023/12/13 10:22:57;;;;;;;20.85;14.98;;;;;;;9.44;100.00;99592.09;5069414;28;20071;-73
2023/12/13 10:25:24;;;;;;;27.95;22.40;;;;;;;9.58;100.00;99598.47;5068345;28;20052;-72
2023/12/13 10:27:55;;;;;;;166.95;143.52;;;;;;;9.77;100.00;99595.84;5073672;28;20408;-71
2023/12/13 10:30:22;;;;;;;19.75;10.35;;;;;;;10.01;100.00;99590.34;5063240;28;20059;-71
2023/12/13 10:32:50;;;;;;;13.30;9.65;;;;;;;10.27;100.00;99586.47;5087520;28;20132;-71
2023/12/13 10:35:19;;;;;;;12.00;6.68;;;;;;;10.53;100.00;99592.25;5074582;28;20052;-72
2023/12/13 10:37:47;;;;;;;13.23;6.43;;;;;;;10.78;100.00;99583.09;5066005;28;20412;-71
2023/12/13 10:40:17;;;;;;;13.60;6.47;;;;;;;10.93;100.00;99581.47;5064633;28;20049;-71
2023/12/13 10:42:52;;;;;;;12.90;6.80;;;;;;;11.10;100.00;99588.47;5070131;28;20036;-72
2023/12/13 10:45:23;;;;;;;10.90;5.90;;;;;;;11.21;100.00;99587.91;5082434;28;20102;-71
2023/12/13 10:48:00;;;;;;;10.80;5.20;;;;;;;11.29;100.00;99589.19;5075739;28;20051;-71
2023/12/13 10:50:29;;;;;;;12.55;5.28;;;;;;;11.37;100.00;99587.97;5047301;28;20060;-71
2023/12/13 10:53:01;;;;;;;10.95;6.00;;;;;;;11.46;100.00;99585.66;5057395;28;20037;-71
2023/12/13 10:55:29;;;;;;;12.05;5.80;;;;;;;11.49;100.00;99587.31;5067821;28;20101;-71
2023/12/13 10:57:57;;;;;;;12.18;6.32;;;;;;;11.44;100.00;99594.59;5070727;28;20091;-71
2023/12/13 11:00:27;;;;;;;10.50;5.85;;;;;;;11.33;100.00;99585.47;5068901;28;20053;-71
2023/12/13 11:03:18;;;;;;;11.88;6.10;;;;;;;11.24;100.00;99593.88;5064580;28;20083;-71
2023/12/13 11:05:45;;;;;;;74.70;43.58;;;;;;;11.22;100.00;99595.75;5073176;28;20402;-71
2023/12/13 11:08:17;;;;;;;361.23;179.35;;;;;;;11.25;100.00;99595.59;5083395;28;20143;-71
2023/12/13 11:11:06;;;;;;;47.75;22.58;;;;;;;11.30;100.00;99593.53;5065052;28;20045;-71
2023/12/13 11:13:54;;;;;;;252.30;92.88;;;;;;;11.32;100.00;99596.13;5046835;28;20119;-71
2023/12/13 11:16:24;;;;;;;323.23;107.13;;;;;;;11.34;100.00;99596.91;5063047;28;20049;-71
2023/12/13 11:18:56;;;;;;;109.32;83.15;;;;;;;11.34;100.00;99597.72;5081969;28;20044;-71
2023/12/13 11:21:27;;;;;;;16.55;9.60;;;;;;;11.33;100.00;99601.31;5069358;28;20048;-71
2023/12/13 11:23:58;;;;;;;12.15;6.85;;;;;;;11.31;100.00;99603.16;5065273;28;20534;-70
2023/12/13 11:26:29;;;;;;;11.52;5.43;;;;;;;11.31;100.00;99603.16;5071593;28;20048;-71
2023/12/13 11:28:57;;;;;;;10.13;5.65;;;;;;;11.31;100.00;99602.31;5072735;28;20044;-71